createdAt,value
2018-06-29T00:00:03.576Z,19.71
2018-06-29T00:01:03.580Z,19.84
2018-06-29T00:02:03.582Z,19.74
2018-06-29T00:03:03.588Z,19.77
2018-06-29T00:04:03.592Z,19.71
2018-06-29T00:05:03.590Z,19.70
2018-06-29T00:06:03.602Z,19.71
2018-06-29T00:07:03.604Z,19.76
2018-06-29T00:08:03.607Z,19.73
2018-06-29T00:09:03.607Z,19.79
2018-06-29T00:10:03.617Z,19.84
2018-06-29T00:11:03.622Z,19.84
2018-06-29T00:12:03.624Z,19.86
2018-06-29T00:13:03.621Z,19.77
2018-06-29T00:14:03.634Z,19.85
2018-06-29T00:15:03.635Z,19.81
2018-06-29T00:16:03.642Z,19.79
2018-06-29T00:17:03.641Z,19.76
2018-06-29T00:18:03.644Z,19.82
2018-06-29T00:19:03.651Z,19.76
2018-06-29T00:20:03.656Z,19.73
2018-06-29T00:21:03.661Z,19.77
2018-06-29T00:22:03.662Z,19.82
2018-06-29T00:23:03.668Z,19.81
2018-06-29T00:24:03.665Z,19.76
2018-06-29T00:25:03.668Z,19.76
2018-06-29T00:26:03.679Z,19.77
2018-06-29T00:27:03.677Z,19.82
2018-06-29T00:28:03.686Z,19.76
2018-06-29T00:29:03.690Z,19.84
2018-06-29T00:30:03.697Z,19.70
2018-06-29T00:31:03.702Z,19.76
2018-06-29T00:32:03.710Z,19.73
2018-06-29T00:33:03.706Z,19.76
2018-06-29T00:34:03.711Z,19.79
2018-06-29T00:35:03.716Z,19.74
2018-06-29T00:36:03.719Z,19.81
2018-06-29T00:37:03.717Z,19.77
2018-06-29T00:38:03.731Z,19.76
2018-06-29T00:39:03.728Z,19.74
2018-06-29T00:40:03.732Z,19.74
2018-06-29T00:41:03.741Z,19.79
2018-06-29T00:42:03.747Z,19.76
2018-06-29T00:43:03.753Z,19.84
2018-06-29T00:44:03.750Z,19.79
2018-06-29T00:45:03.752Z,19.77
2018-06-29T00:46:03.759Z,19.88
2018-06-29T00:47:03.775Z,19.85
2018-06-29T00:48:03.762Z,19.82
2018-06-29T00:49:03.771Z,19.84
2018-06-29T00:50:03.774Z,19.79
2018-06-29T00:51:03.777Z,19.73
2018-06-29T00:52:03.783Z,19.74
2018-06-29T00:53:03.786Z,19.79
2018-06-29T00:54:03.791Z,19.82
2018-06-29T00:55:03.795Z,19.77
2018-06-29T00:56:03.800Z,19.77
2018-06-29T00:57:03.798Z,19.79
2018-06-29T00:58:03.807Z,19.67
2018-06-29T00:59:03.811Z,19.71
2018-06-29T01:00:03.816Z,19.76
2018-06-29T01:01:03.824Z,19.73
2018-06-29T01:02:03.823Z,19.69
2018-06-29T01:03:03.826Z,19.67
2018-06-29T01:04:03.832Z,19.73
2018-06-29T01:05:03.836Z,19.71
2018-06-29T01:06:03.839Z,19.71
2018-06-29T01:07:03.837Z,19.70
2018-06-29T01:08:03.847Z,19.67
2018-06-29T01:09:03.852Z,19.70
2018-06-29T01:10:03.855Z,19.84
2018-06-29T01:11:03.853Z,19.82
2018-06-29T01:12:03.864Z,19.84
2018-06-29T01:13:03.867Z,19.73
2018-06-29T01:14:03.871Z,19.67
2018-06-29T01:15:03.878Z,19.79
2018-06-29T01:16:03.878Z,19.74
2018-06-29T01:17:03.883Z,19.74
2018-06-29T01:18:03.887Z,19.71
2018-06-29T01:19:03.891Z,19.71
2018-06-29T01:20:03.894Z,19.62
2018-06-29T01:21:03.893Z,19.71
2018-06-29T01:22:03.897Z,19.66
2018-06-29T01:23:03.903Z,19.64
2018-06-29T01:24:03.910Z,19.54
2018-06-29T01:25:03.920Z,19.54
2018-06-29T01:26:03.919Z,19.55
2018-06-29T01:27:03.922Z,19.58
2018-06-29T01:28:03.928Z,19.55
2018-06-29T01:29:03.931Z,19.48
2018-06-29T01:30:03.936Z,19.49
2018-06-29T01:31:03.938Z,19.47
2018-06-29T01:32:03.943Z,19.40
2018-06-29T01:33:03.947Z,19.48
2018-06-29T01:34:03.950Z,19.49
2018-06-29T01:35:03.955Z,19.48
2018-06-29T01:36:03.959Z,19.41
2018-06-29T01:37:03.960Z,19.37
2018-06-29T01:38:03.966Z,19.45
2018-06-29T01:39:03.966Z,19.31
2018-06-29T01:40:03.972Z,19.33
2018-06-29T01:41:03.970Z,19.34
2018-06-29T01:42:03.974Z,19.37
2018-06-29T01:43:03.986Z,19.22
2018-06-29T01:44:03.989Z,19.18
2018-06-29T01:45:03.991Z,19.24
2018-06-29T01:46:04.002Z,19.24
2018-06-29T01:47:04.001Z,19.29
2018-06-29T01:48:04.004Z,19.21
2018-06-29T01:49:04.006Z,19.21
2018-06-29T01:50:04.008Z,19.02
2018-06-29T01:51:04.020Z,19.12
2018-06-29T01:52:04.014Z,19.08
2018-06-29T01:53:04.019Z,19.11
2018-06-29T01:54:04.026Z,19.04
2018-06-29T01:55:04.032Z,19.07
2018-06-29T01:56:04.034Z,19.02
2018-06-29T01:57:04.038Z,19.00
2018-06-29T01:58:04.039Z,19.02
2018-06-29T01:59:04.042Z,18.96
2018-06-29T02:00:04.047Z,18.89
2018-06-29T02:01:04.049Z,18.98
2018-06-29T02:02:04.054Z,18.84
2018-06-29T02:03:04.057Z,18.86
2018-06-29T02:04:04.062Z,18.89
2018-06-29T02:05:04.066Z,18.93
2018-06-29T02:06:04.069Z,18.98
2018-06-29T02:07:04.067Z,18.84
2018-06-29T02:08:04.142Z,18.92
2018-06-29T02:09:04.071Z,18.83
2018-06-29T02:10:04.077Z,18.83
2018-06-29T02:11:04.085Z,18.81
2018-06-29T02:12:04.088Z,18.90
2018-06-29T02:13:04.089Z,18.83
2018-06-29T02:14:04.090Z,18.77
2018-06-29T02:15:04.097Z,18.77
2018-06-29T02:16:04.102Z,18.83
2018-06-29T02:17:04.104Z,18.75
2018-06-29T02:18:04.104Z,18.74
2018-06-29T02:19:04.111Z,18.74
2018-06-29T02:20:04.109Z,18.75
2018-06-29T02:21:04.115Z,18.73
2018-06-29T02:22:04.122Z,18.68
2018-06-29T02:23:04.123Z,18.68
2018-06-29T02:24:04.128Z,18.59
2018-06-29T02:25:04.130Z,18.65
2018-06-29T02:26:04.133Z,18.63
2018-06-29T02:27:04.136Z,18.65
2018-06-29T02:28:04.141Z,18.70
2018-06-29T02:29:04.136Z,18.68
2018-06-29T02:30:04.153Z,18.62
2018-06-29T02:31:04.150Z,18.58
2018-06-29T02:32:04.153Z,18.58
2018-06-29T02:33:04.148Z,18.52
2018-06-29T02:34:04.160Z,18.49
2018-06-29T02:35:04.160Z,18.47
2018-06-29T02:36:04.166Z,18.49
2018-06-29T02:37:04.168Z,18.44
2018-06-29T02:38:04.171Z,18.49
2018-06-29T02:39:04.173Z,18.44
2018-06-29T02:40:04.175Z,18.45
2018-06-29T02:41:04.179Z,18.50
2018-06-29T02:42:04.183Z,18.44
2018-06-29T02:43:04.182Z,18.47
2018-06-29T02:44:04.192Z,18.47
2018-06-29T02:45:04.188Z,18.43
2018-06-29T02:46:04.190Z,18.49
2018-06-29T02:47:04.202Z,18.37
2018-06-29T02:48:04.203Z,18.47
2018-06-29T02:49:04.204Z,18.43
2018-06-29T02:50:04.206Z,18.44
2018-06-29T02:51:04.211Z,18.45
2018-06-29T02:52:04.214Z,18.43
2018-06-29T02:53:04.216Z,18.43
2018-06-29T02:54:04.220Z,18.38
2018-06-29T02:55:04.222Z,18.35
2018-06-29T02:56:04.225Z,18.38
2018-06-29T02:57:04.228Z,18.38
2018-06-29T02:58:04.232Z,18.35
2018-06-29T02:59:04.236Z,18.40
2018-06-29T03:00:04.238Z,18.38
2018-06-29T03:01:04.243Z,18.37
2018-06-29T03:02:04.245Z,18.43
2018-06-29T03:03:04.247Z,18.37
2018-06-29T03:04:04.249Z,18.43
2018-06-29T03:05:04.255Z,18.34
2018-06-29T03:06:04.250Z,18.45
2018-06-29T03:07:04.257Z,18.43
2018-06-29T03:08:04.262Z,18.35
2018-06-29T03:09:04.263Z,18.38
2018-06-29T03:10:04.264Z,18.37
2018-06-29T03:11:04.272Z,18.34
2018-06-29T03:12:04.273Z,18.40
2018-06-29T03:13:04.276Z,18.37
2018-06-29T03:14:04.278Z,18.38
2018-06-29T03:15:04.281Z,18.33
2018-06-29T03:16:04.285Z,18.37
2018-06-29T03:17:04.289Z,18.35
2018-06-29T03:18:04.290Z,18.34
2018-06-29T03:19:04.293Z,18.34
2018-06-29T03:20:04.299Z,18.37
2018-06-29T03:21:04.298Z,18.47
2018-06-29T03:22:04.304Z,18.44
2018-06-29T03:23:04.305Z,18.38
2018-06-29T03:24:04.308Z,18.43
2018-06-29T03:25:04.336Z,18.45
2018-06-29T03:26:04.316Z,18.47
2018-06-29T03:27:04.314Z,18.49
2018-06-29T03:28:04.320Z,18.45
2018-06-29T03:29:04.316Z,18.47
2018-06-29T03:30:04.324Z,18.50
2018-06-29T03:31:04.327Z,18.47
2018-06-29T03:32:04.332Z,18.49
2018-06-29T03:33:04.368Z,18.45
2018-06-29T03:34:04.332Z,18.45
2018-06-29T03:35:04.342Z,18.45
2018-06-29T03:36:04.344Z,18.47
2018-06-29T03:37:04.348Z,18.45
2018-06-29T03:38:04.350Z,18.49
2018-06-29T03:39:04.350Z,18.47
2018-06-29T03:40:04.354Z,18.47
2018-06-29T03:41:04.358Z,18.58
2018-06-29T03:42:04.363Z,18.50
2018-06-29T03:43:04.366Z,18.52
2018-06-29T03:44:04.372Z,18.45
2018-06-29T03:45:04.371Z,18.53
2018-06-29T03:46:04.374Z,18.59
2018-06-29T03:47:04.376Z,18.52
2018-06-29T03:48:04.382Z,18.58
2018-06-29T03:49:04.382Z,18.49
2018-06-29T03:50:04.386Z,18.52
2018-06-29T03:51:04.393Z,18.47
2018-06-29T03:52:04.392Z,18.49
2018-06-29T03:53:04.395Z,18.45
2018-06-29T03:54:04.399Z,18.53
2018-06-29T03:55:04.404Z,18.45
2018-06-29T03:56:04.406Z,18.43
2018-06-29T03:57:04.408Z,18.50
2018-06-29T03:58:04.411Z,18.55
2018-06-29T03:59:04.416Z,18.55
2018-06-29T04:00:04.418Z,18.53
2018-06-29T04:01:04.419Z,18.62
2018-06-29T04:02:04.418Z,18.53
2018-06-29T04:03:04.427Z,18.71
2018-06-29T04:04:04.431Z,18.62
2018-06-29T04:05:04.432Z,18.71
2018-06-29T04:06:04.436Z,18.70
2018-06-29T04:07:04.439Z,18.65
2018-06-29T04:08:04.444Z,18.65
2018-06-29T04:09:04.445Z,18.62
2018-06-29T04:10:04.443Z,18.74
2018-06-29T04:11:04.455Z,18.75
2018-06-29T04:12:04.456Z,18.73
2018-06-29T04:13:04.454Z,18.78
2018-06-29T04:14:04.462Z,18.77
2018-06-29T04:15:04.465Z,18.83
2018-06-29T04:16:04.466Z,18.80
2018-06-29T04:17:04.471Z,18.81
2018-06-29T04:18:04.474Z,18.81
2018-06-29T04:19:04.478Z,18.84
2018-06-29T04:20:04.480Z,18.77
2018-06-29T04:21:04.477Z,18.88
2018-06-29T04:22:04.488Z,18.92
2018-06-29T04:23:04.504Z,18.93
2018-06-29T04:24:04.493Z,18.95
2018-06-29T04:25:04.492Z,18.84
2018-06-29T04:26:04.499Z,18.98
2018-06-29T04:27:04.504Z,19.04
2018-06-29T04:28:04.507Z,19.08
2018-06-29T04:29:04.509Z,19.11
2018-06-29T04:30:04.513Z,19.18
2018-06-29T04:31:04.517Z,19.26
2018-06-29T04:32:04.532Z,19.16
2018-06-29T04:33:04.523Z,19.22
2018-06-29T04:34:04.527Z,19.24
2018-06-29T04:35:04.533Z,19.24
2018-06-29T04:36:04.536Z,19.27
2018-06-29T04:37:04.537Z,19.27
2018-06-29T04:38:04.536Z,19.36
2018-06-29T04:39:04.548Z,19.45
2018-06-29T04:40:04.543Z,19.44
2018-06-29T04:41:04.552Z,19.51
2018-06-29T04:42:04.558Z,19.49
2018-06-29T04:43:04.560Z,19.49
2018-06-29T04:44:04.565Z,19.55
2018-06-29T04:45:04.561Z,19.55
2018-06-29T04:46:04.569Z,19.63
2018-06-29T04:47:04.575Z,19.62
2018-06-29T04:48:04.584Z,19.63
2018-06-29T04:49:04.583Z,19.70
2018-06-29T04:50:04.591Z,19.67
2018-06-29T04:51:04.586Z,19.74
2018-06-29T04:52:04.601Z,19.85
2018-06-29T04:53:04.599Z,19.73
2018-06-29T04:54:04.604Z,19.81
2018-06-29T04:55:04.608Z,19.73
2018-06-29T04:56:04.613Z,19.84
2018-06-29T04:57:04.616Z,19.85
2018-06-29T04:58:04.619Z,19.85
2018-06-29T04:59:04.625Z,19.82
2018-06-29T05:00:04.632Z,19.85
2018-06-29T05:01:04.694Z,19.92
2018-06-29T05:02:04.642Z,20.00
2018-06-29T05:03:04.640Z,20.09
2018-06-29T05:04:04.646Z,20.13
2018-06-29T05:05:04.648Z,20.21
2018-06-29T05:06:04.649Z,20.21
2018-06-29T05:07:04.663Z,20.19
2018-06-29T05:08:04.663Z,20.34
2018-06-29T05:09:04.678Z,20.29
2018-06-29T05:10:04.671Z,20.31
2018-06-29T05:11:04.676Z,20.28
2018-06-29T05:12:04.680Z,20.29
2018-06-29T05:13:04.685Z,20.31
2018-06-29T05:14:04.688Z,20.31
2018-06-29T05:15:04.692Z,20.19
2018-06-29T05:16:04.693Z,20.31
2018-06-29T05:17:04.702Z,20.24
2018-06-29T05:18:04.702Z,20.19
2018-06-29T05:19:04.714Z,20.22
2018-06-29T05:20:04.725Z,20.22
2018-06-29T05:21:04.720Z,20.19
2018-06-29T05:22:04.727Z,20.22
2018-06-29T05:23:04.728Z,20.07
2018-06-29T05:24:04.735Z,20.09
2018-06-29T05:25:04.740Z,20.04
2018-06-29T05:26:04.741Z,20.07
2018-06-29T05:27:04.741Z,20.06
2018-06-29T05:28:04.753Z,20.06
2018-06-29T05:29:04.757Z,20.10
2018-06-29T05:30:04.763Z,20.11
2018-06-29T05:31:04.764Z,20.18
2018-06-29T05:32:04.767Z,20.18
2018-06-29T05:33:04.777Z,20.21
2018-06-29T05:34:04.780Z,20.19
2018-06-29T05:35:04.782Z,20.21
2018-06-29T05:36:04.798Z,20.19
2018-06-29T05:37:04.793Z,20.28
2018-06-29T05:38:04.798Z,20.26
2018-06-29T05:39:04.801Z,20.36
2018-06-29T05:40:04.809Z,20.34
2018-06-29T05:41:04.810Z,20.25
2018-06-29T05:42:04.815Z,20.32
2018-06-29T05:43:04.820Z,20.21
2018-06-29T05:44:04.827Z,20.19
2018-06-29T05:45:04.822Z,20.18
2018-06-29T05:46:04.845Z,20.18
2018-06-29T05:47:04.913Z,20.19
2018-06-29T05:48:04.842Z,20.19
2018-06-29T05:49:04.850Z,20.13
2018-06-29T05:50:04.852Z,20.16
2018-06-29T05:51:04.860Z,20.11
2018-06-29T05:52:04.858Z,20.09
2018-06-29T05:53:04.876Z,20.21
2018-06-29T05:54:04.871Z,20.21
2018-06-29T05:55:04.874Z,20.26
2018-06-29T05:56:04.882Z,20.34
2018-06-29T05:57:04.883Z,20.34
2018-06-29T05:58:04.885Z,20.36
2018-06-29T05:59:04.909Z,20.34
2018-06-29T06:00:04.896Z,20.50
2018-06-29T06:01:04.901Z,20.40
2018-06-29T06:02:04.937Z,20.50
2018-06-29T06:03:04.911Z,20.48
2018-06-29T06:04:04.921Z,20.51
2018-06-29T06:05:04.912Z,20.55
2018-06-29T06:06:04.926Z,20.51
2018-06-29T06:07:04.928Z,20.66
2018-06-29T06:08:04.932Z,20.43
2018-06-29T06:09:04.937Z,20.43
2018-06-29T06:10:04.979Z,20.41
2018-06-29T06:11:04.947Z,20.55
2018-06-29T06:12:04.950Z,20.60
2018-06-29T06:13:04.955Z,20.58
2018-06-29T06:14:04.963Z,20.62
2018-06-29T06:15:04.968Z,20.77
2018-06-29T06:16:04.977Z,20.78
2018-06-29T06:17:04.969Z,20.82
2018-06-29T06:18:04.979Z,20.78
2018-06-29T06:19:04.984Z,20.75
2018-06-29T06:20:04.989Z,20.77
2018-06-29T06:21:04.997Z,20.80
2018-06-29T06:22:05.052Z,20.80
2018-06-29T06:23:05.004Z,20.78
2018-06-29T06:24:05.009Z,20.95
2018-06-29T06:25:05.018Z,20.82
2018-06-29T06:26:05.017Z,20.82
2018-06-29T06:27:05.020Z,20.82
2018-06-29T06:28:05.028Z,20.77
2018-06-29T06:29:05.030Z,20.77
2018-06-29T06:30:05.050Z,20.84
2018-06-29T06:31:05.041Z,20.78
2018-06-29T06:32:05.050Z,20.85
2018-06-29T06:33:05.061Z,20.85
2018-06-29T06:34:05.055Z,20.95
2018-06-29T06:35:05.062Z,21.00
2018-06-29T06:36:05.058Z,20.97
2018-06-29T06:37:05.075Z,20.96
2018-06-29T06:38:05.075Z,21.02
2018-06-29T06:39:05.081Z,21.06
2018-06-29T06:40:05.087Z,21.20
2018-06-29T06:41:05.089Z,21.20
2018-06-29T06:42:05.094Z,21.24
2018-06-29T06:43:05.105Z,21.21
2018-06-29T06:44:05.100Z,21.21
2018-06-29T06:45:05.106Z,21.20
2018-06-29T06:46:05.114Z,21.17
2018-06-29T06:47:05.231Z,21.17
2018-06-29T06:48:05.129Z,21.18
2018-06-29T06:49:05.131Z,21.25
2018-06-29T06:50:05.138Z,21.15
2018-06-29T06:51:05.135Z,21.06
2018-06-29T06:52:05.145Z,21.00
2018-06-29T06:53:05.149Z,21.02
2018-06-29T06:54:05.150Z,21.12
2018-06-29T06:55:05.154Z,21.18
2018-06-29T06:56:05.168Z,21.17
2018-06-29T06:57:05.166Z,21.21
2018-06-29T06:58:05.172Z,21.27
2018-06-29T06:59:05.182Z,21.35
2018-06-29T07:00:05.186Z,21.35
2018-06-29T07:01:05.191Z,21.35
2018-06-29T07:02:05.198Z,21.32
2018-06-29T07:03:05.213Z,21.36
2018-06-29T07:04:05.216Z,21.43
2018-06-29T07:05:05.216Z,21.43
2018-06-29T07:06:05.216Z,21.55
2018-06-29T07:07:05.222Z,21.60
2018-06-29T07:08:05.227Z,21.40
2018-06-29T07:09:05.230Z,21.46
2018-06-29T07:10:05.237Z,21.51
2018-06-29T07:11:05.241Z,21.50
2018-06-29T07:12:05.249Z,21.52
2018-06-29T07:13:05.250Z,21.46
2018-06-29T07:14:05.259Z,21.50
2018-06-29T07:15:05.267Z,21.43
2018-06-29T07:16:05.269Z,21.43
2018-06-29T07:17:05.274Z,21.46
2018-06-29T07:18:05.295Z,21.50
2018-06-29T07:19:05.299Z,21.54
2018-06-29T07:20:05.307Z,21.52
2018-06-29T07:21:05.296Z,21.54
2018-06-29T07:22:05.292Z,21.55
2018-06-29T07:23:05.306Z,21.43
2018-06-29T07:24:05.312Z,21.55
2018-06-29T07:25:05.321Z,21.64
2018-06-29T07:26:05.322Z,21.60
2018-06-29T07:27:05.321Z,21.64
2018-06-29T07:28:05.341Z,21.69
2018-06-29T07:29:05.337Z,21.72
2018-06-29T07:30:05.357Z,21.76
2018-06-29T07:31:05.348Z,21.70
2018-06-29T07:32:05.354Z,21.89
2018-06-29T07:33:05.359Z,21.91
2018-06-29T07:34:05.365Z,21.92
2018-06-29T07:35:05.370Z,21.99
2018-06-29T07:36:05.374Z,21.91
2018-06-29T07:37:05.388Z,21.95
2018-06-29T07:38:05.388Z,22.04
2018-06-29T07:39:05.392Z,22.02
2018-06-29T07:40:05.397Z,22.22
2018-06-29T07:41:05.400Z,22.15
2018-06-29T07:42:05.410Z,22.14
2018-06-29T07:43:05.414Z,22.20
2018-06-29T07:44:05.419Z,22.18
2018-06-29T07:45:05.428Z,22.20
2018-06-29T07:46:05.441Z,22.20
2018-06-29T07:47:05.432Z,22.20
2018-06-29T07:48:05.443Z,22.18
2018-06-29T07:49:05.456Z,22.20
2018-06-29T07:50:05.453Z,22.22
2018-06-29T07:51:05.461Z,22.23
2018-06-29T07:52:05.464Z,22.25
2018-06-29T07:53:05.469Z,22.30
2018-06-29T07:54:05.475Z,22.38
2018-06-29T07:55:05.489Z,22.20
2018-06-29T07:56:05.487Z,22.08
2018-06-29T07:57:05.493Z,22.06
2018-06-29T07:58:05.529Z,22.10
2018-06-29T07:59:05.504Z,22.22
2018-06-29T08:00:05.515Z,22.23
2018-06-29T08:01:05.521Z,22.18
2018-06-29T08:02:05.522Z,22.23
2018-06-29T08:03:05.534Z,22.23
2018-06-29T08:04:05.534Z,22.23
2018-06-29T08:05:05.532Z,22.38
2018-06-29T08:06:05.544Z,22.30
2018-06-29T08:07:05.549Z,22.28
2018-06-29T08:08:05.556Z,22.38
2018-06-29T08:09:05.564Z,22.41
2018-06-29T08:10:05.571Z,22.53
2018-06-29T08:11:05.574Z,22.39
2018-06-29T08:12:05.579Z,22.50
2018-06-29T08:13:05.591Z,22.45
